Time;durP1;ratioP1;P1;durP2;ratioP2;P2;SDS_P1;SDS_P2;PMS_P1;PMS_P2;Temp;Humidity;BMP_temperature;BMP_pressure;BME280_temperature;BME280_humidity;BME280_pressure;Samples;Min_cycle;Max_cycle;Signal;HPM_P1;HPM_P2
2021/09/19 00:00:52;;;;;;;4.72;0.80;;;;;;;;;;5031355;28;20133;-68
2021/09/19 00:03:20;;;;;;;5.15;0.98;;;;;;;;;;5031499;28;20022;-68
2021/09/19 00:05:47;;;;;;;5.15;0.98;;;;;;;;;;5031748;28;20100;-68
2021/09/19 00:08:14;;;;;;;6.30;0.75;;;;;;;;;;5031262;28;20027;-67
2021/09/19 00:10:42;;;;;;;5.15;0.80;;;;;;;;;;5030433;28;20116;-67
2021/09/19 00:13:09;;;;;;;5.82;1.17;;;;;;;;;;5031936;28;20021;-68
2021/09/19 00:15:36;;;;;;;4.65;0.73;;;;;;;;;;5041197;28;20052;-68
2021/09/19 00:18:03;;;;;;;4.15;0.88;;;;;;;;;;5046318;28;20061;-67
2021/09/19 00:20:30;;;;;;;3.65;0.77;;;;;;;;;;5036669;28;20091;-68
2021/09/19 00:22:58;;;;;;;4.10;0.63;;;;;;;;;;5042333;28;20429;-67
2021/09/19 00:25:25;;;;;;;4.60;0.80;;;;;;;;;;5031640;28;20124;-68
2021/09/19 00:27:52;;;;;;;3.38;0.63;;;;;;;;;;5031443;28;20029;-68
2021/09/19 00:30:19;;;;;;;7.90;1.13;;;;;;;;;;5025830;28;20057;-68
2021/09/19 00:32:46;;;;;;;3.80;0.73;;;;;;;;;;5026231;28;20030;-68
2021/09/19 00:35:13;;;;;;;3.42;0.50;;;;;;;;;;5027789;28;20026;-68
2021/09/19 00:37:40;;;;;;;3.45;0.52;;;;;;;;;;5031914;28;20049;-68
2021/09/19 00:40:08;;;;;;;4.70;0.70;;;;;;;;;;5029031;28;20025;-68
2021/09/19 00:42:36;;;;;;;3.72;0.73;;;;;;;;;;5034699;28;20511;-68
2021/09/19 00:45:08;;;;;;;3.40;0.60;;;;;;;;;;5037626;28;20478;-68
2021/09/19 00:47:35;;;;;;;2.00;0.60;;;;;;;;;;5041679;28;20027;-68
2021/09/19 00:50:02;;;;;;;5.22;0.60;;;;;;;;;;5048870;28;20037;-67
2021/09/19 00:52:29;;;;;;;2.67;0.50;;;;;;;;;;5034050;28;20049;-68
2021/09/19 00:54:59;;;;;;;3.55;0.60;;;;;;;;;;5031756;28;20029;-68
2021/09/19 00:57:26;;;;;;;7.32;0.73;;;;;;;;;;5027972;28;20080;-68
2021/09/19 00:59:54;;;;;;;2.45;0.50;;;;;;;;;;5027767;28;20032;-68
2021/09/19 01:02:23;;;;;;;3.58;0.40;;;;;;;;;;5044625;28;20477;-68
2021/09/19 01:04:50;;;;;;;4.63;0.60;;;;;;;;;;5026783;28;20029;-68
2021/09/19 01:07:17;;;;;;;6.35;0.57;;;;;;;;;;5041115;28;20110;-68
2021/09/19 01:09:45;;;;;;;4.60;0.60;;;;;;;;;;5038276;28;20032;-69
2021/09/19 01:12:12;;;;;;;4.45;0.65;;;;;;;;;;5027100;28;20040;-69
2021/09/19 01:14:43;;;;;;;4.30;0.63;;;;;;;;;;5038359;28;20028;-69
2021/09/19 01:17:10;;;;;;;6.78;0.98;;;;;;;;;;5036106;28;20021;-68
2021/09/19 01:19:38;;;;;;;4.15;0.75;;;;;;;;;;5033671;28;20080;-68
2021/09/19 01:22:06;;;;;;;3.53;0.60;;;;;;;;;;5036290;28;20080;-69
2021/09/19 01:24:34;;;;;;;2.60;0.68;;;;;;;;;;5038004;28;20026;-68
2021/09/19 01:27:01;;;;;;;3.78;0.40;;;;;;;;;;5039028;28;20096;-68
2021/09/19 01:29:29;;;;;;;2.30;0.47;;;;;;;;;;5037464;28;20025;-68
2021/09/19 01:31:57;;;;;;;3.30;0.60;;;;;;;;;;5039655;28;20036;-68
2021/09/19 01:34:27;;;;;;;3.95;0.52;;;;;;;;;;5038631;28;20124;-69
2021/09/19 01:36:54;;;;;;;3.17;0.57;;;;;;;;;;5035186;28;20025;-69
2021/09/19 01:39:21;;;;;;;3.35;0.52;;;;;;;;;;5035485;28;20576;-68
2021/09/19 01:41:51;;;;;;;3.47;0.93;;;;;;;;;;5035055;28;20045;-68
2021/09/19 01:44:19;;;;;;;3.78;0.30;;;;;;;;;;5034097;28;20104;-68
2021/09/19 01:46:46;;;;;;;1.88;0.50;;;;;;;;;;5038301;28;20026;-68
2021/09/19 01:49:13;;;;;;;3.35;0.40;;;;;;;;;;5039299;28;20025;-68
2021/09/19 01:51:40;;;;;;;4.22;0.75;;;;;;;;;;5038567;28;20060;-68
2021/09/19 01:54:07;;;;;;;5.78;0.95;;;;;;;;;;5038650;28;20079;-69
2021/09/19 01:56:34;;;;;;;1.77;0.43;;;;;;;;;;5033923;28;20033;-68
2021/09/19 01:59:01;;;;;;;4.40;0.80;;;;;;;;;;5039015;28;20024;-69
2021/09/19 02:01:30;;;;;;;3.00;0.43;;;;;;;;;;5038466;28;20097;-68
2021/09/19 02:03:57;;;;;;;5.72;0.60;;;;;;;;;;5026763;28;20426;-69
2021/09/19 02:06:25;;;;;;;3.72;0.47;;;;;;;;;;5018894;28;20029;-69
2021/09/19 02:08:52;;;;;;;2.03;0.32;;;;;;;;;;5019123;28;20022;-68
2021/09/19 02:11:20;;;;;;;4.38;0.60;;;;;;;;;;5019423;28;20026;-68
2021/09/19 02:13:47;;;;;;;2.40;0.30;;;;;;;;;;5019540;28;20037;-68
2021/09/19 02:16:15;;;;;;;4.95;0.50;;;;;;;;;;5018819;28;20029;-69
2021/09/19 02:18:42;;;;;;;2.65;0.75;;;;;;;;;;5020731;28;20057;-69
2021/09/19 02:21:10;;;;;;;4.70;0.60;;;;;;;;;;5034226;28;20049;-69
2021/09/19 02:23:38;;;;;;;4.63;0.90;;;;;;;;;;5035051;28;20013;-69
2021/09/19 02:26:05;;;;;;;2.95;0.70;;;;;;;;;;5035592;28;20048;-67
2021/09/19 02:28:32;;;;;;;3.05;0.63;;;;;;;;;;5035601;28;20033;-68
2021/09/19 02:30:59;;;;;;;5.15;0.50;;;;;;;;;;5035170;28;20025;-69
2021/09/19 02:33:27;;;;;;;3.25;0.50;;;;;;;;;;5034894;28;20092;-69
2021/09/19 02:35:54;;;;;;;3.78;0.52;;;;;;;;;;5033172;28;20483;-69
2021/09/19 02:38:21;;;;;;;4.07;0.55;;;;;;;;;;5034559;28;20099;-69
2021/09/19 02:40:51;;;;;;;3.25;0.60;;;;;;;;;;5035008;28;20025;-69
2021/09/19 02:43:19;;;;;;;3.75;0.95;;;;;;;;;;5035495;28;20022;-69
2021/09/19 02:45:46;;;;;;;6.50;0.63;;;;;;;;;;5035900;28;20040;-68
2021/09/19 02:48:13;;;;;;;3.03;0.60;;;;;;;;;;5035127;28;20030;-68
2021/09/19 02:50:40;;;;;;;3.47;0.85;;;;;;;;;;5029840;28;20699;-68
2021/09/19 02:53:08;;;;;;;3.05;0.60;;;;;;;;;;5035181;28;20417;-68
2021/09/19 02:55:35;;;;;;;2.78;0.73;;;;;;;;;;5024507;28;20014;-68
2021/09/19 02:58:02;;;;;;;3.05;0.60;;;;;;;;;;5034523;28;20021;-69
2021/09/19 03:00:29;;;;;;;2.75;0.88;;;;;;;;;;5034487;28;20087;-69
2021/09/19 03:02:56;;;;;;;4.00;1.02;;;;;;;;;;5033432;28;20444;-68
2021/09/19 03:05:23;;;;;;;4.85;0.80;;;;;;;;;;5034524;28;20415;-69
2021/09/19 03:07:54;;;;;;;3.83;0.80;;;;;;;;;;5034881;28;20474;-68
2021/09/19 03:10:22;;;;;;;2.03;0.50;;;;;;;;;;5035092;28;20083;-68
2021/09/19 03:12:49;;;;;;;4.00;0.63;;;;;;;;;;5032623;28;20429;-68
2021/09/19 03:15:16;;;;;;;4.90;0.63;;;;;;;;;;5034055;28;20490;-68
2021/09/19 03:17:43;;;;;;;4.90;1.15;;;;;;;;;;5034664;28;20053;-68
2021/09/19 03:20:12;;;;;;;3.58;1.10;;;;;;;;;;5034750;28;20494;-69
2021/09/19 03:22:40;;;;;;;3.08;0.80;;;;;;;;;;5020459;28;20014;-67
2021/09/19 03:25:07;;;;;;;5.10;0.60;;;;;;;;;;5014961;28;20022;-68
2021/09/19 03:27:34;;;;;;;2.67;0.50;;;;;;;;;;5017492;28;20032;-68
2021/09/19 03:30:02;;;;;;;2.15;0.70;;;;;;;;;;5031612;28;20472;-67
2021/09/19 03:32:29;;;;;;;4.68;0.80;;;;;;;;;;5031221;28;20025;-67
2021/09/19 03:34:56;;;;;;;5.28;0.85;;;;;;;;;;5034593;28;20342;-68
2021/09/19 03:37:23;;;;;;;2.70;0.50;;;;;;;;;;5034247;28;20032;-68
2021/09/19 03:39:50;;;;;;;3.42;0.57;;;;;;;;;;5032545;28;20170;-68
2021/09/19 03:42:17;;;;;;;3.90;0.88;;;;;;;;;;5033748;28;20033;-68
2021/09/19 03:44:44;;;;;;;3.10;0.50;;;;;;;;;;5034093;28;20100;-69
2021/09/19 03:47:11;;;;;;;2.92;0.43;;;;;;;;;;5034358;28;20076;-69
2021/09/19 03:49:38;;;;;;;5.80;0.98;;;;;;;;;;5034019;28;20117;-67
2021/09/19 03:52:06;;;;;;;2.83;0.80;;;;;;;;;;5028645;28;20033;-67
2021/09/19 03:54:33;;;;;;;4.50;0.70;;;;;;;;;;5029573;28;20089;-67
2021/09/19 03:57:01;;;;;;;4.88;0.80;;;;;;;;;;5013927;28;20606;-68
2021/09/19 03:59:28;;;;;;;3.00;0.50;;;;;;;;;;5028343;28;20029;-67
2021/09/19 04:01:55;;;;;;;3.85;0.60;;;;;;;;;;5033741;28;20113;-68
2021/09/19 04:04:22;;;;;;;5.30;0.85;;;;;;;;;;5032152;28;20032;-68
2021/09/19 04:06:49;;;;;;;3.65;0.73;;;;;;;;;;5033960;28;20045;-68
2021/09/19 04:09:16;;;;;;;3.72;0.50;;;;;;;;;;5030015;28;20033;-68
2021/09/19 04:11:43;;;;;;;3.30;0.55;;;;;;;;;;5033538;28;20425;-68
2021/09/19 04:14:11;;;;;;;5.47;0.60;;;;;;;;;;5028663;28;20029;-68
2021/09/19 04:16:38;;;;;;;2.38;0.75;;;;;;;;;;5032049;28;20033;-68
2021/09/19 04:19:07;;;;;;;3.17;0.60;;;;;;;;;;5030813;28;20144;-68
2021/09/19 04:21:34;;;;;;;1.73;0.35;;;;;;;;;;5033187;28;20136;-68
2021/09/19 04:24:04;;;;;;;4.05;0.75;;;;;;;;;;5028281;28;20060;-68
2021/09/19 04:26:32;;;;;;;4.88;0.82;;;;;;;;;;5029739;28;20421;-68
2021/09/19 04:28:59;;;;;;;2.58;0.40;;;;;;;;;;5031546;28;20060;-67
2021/09/19 04:31:26;;;;;;;2.88;0.40;;;;;;;;;;5033122;28;20028;-68
2021/09/19 04:33:53;;;;;;;3.60;0.70;;;;;;;;;;5030909;28;20630;-68
2021/09/19 04:36:20;;;;;;;1.98;0.30;;;;;;;;;;5032767;28;20390;-68
2021/09/19 04:38:47;;;;;;;3.80;0.90;;;;;;;;;;5030604;28;20042;-68
2021/09/19 04:41:14;;;;;;;2.75;0.60;;;;;;;;;;5031621;28;20120;-67
2021/09/19 04:43:41;;;;;;;2.78;0.45;;;;;;;;;;5030849;28;20093;-68
2021/09/19 04:46:09;;;;;;;5.18;0.60;;;;;;;;;;5029363;28;20022;-69
2021/09/19 04:48:36;;;;;;;4.63;0.90;;;;;;;;;;5030737;28;20025;-67
2021/09/19 04:51:03;;;;;;;2.97;0.73;;;;;;;;;;5032518;28;20037;-68
2021/09/19 04:53:30;;;;;;;3.47;0.60;;;;;;;;;;5031221;28;20326;-68
2021/09/19 04:55:57;;;;;;;2.90;1.08;;;;;;;;;;5032929;28;20116;-68
2021/09/19 04:58:24;;;;;;;4.65;0.52;;;;;;;;;;5030104;28;20026;-68
2021/09/19 05:00:51;;;;;;;4.40;0.65;;;;;;;;;;5032393;28;20026;-68
2021/09/19 05:03:18;;;;;;;3.13;0.85;;;;;;;;;;5031038;28;20022;-68
2021/09/19 05:05:45;;;;;;;3.08;0.63;;;;;;;;;;5026606;28;20482;-68
2021/09/19 05:08:13;;;;;;;3.33;0.57;;;;;;;;;;5027777;28;20469;-66
2021/09/19 05:10:40;;;;;;;2.97;0.68;;;;;;;;;;5030513;28;20048;-66
2021/09/19 05:13:07;;;;;;;3.67;0.90;;;;;;;;;;5027956;28;20481;-66
2021/09/19 05:15:34;;;;;;;4.63;1.23;;;;;;;;;;5029521;28;20025;-67
2021/09/19 05:18:01;;;;;;;4.38;0.60;;;;;;;;;;5016200;28;20033;-68
2021/09/19 05:20:28;;;;;;;4.38;0.63;;;;;;;;;;5027940;28;20053;-68
2021/09/19 05:22:55;;;;;;;3.58;0.70;;;;;;;;;;5027877;28;20026;-68
2021/09/19 05:25:22;;;;;;;4.93;0.73;;;;;;;;;;5028872;28;20495;-69
2021/09/19 05:27:53;;;;;;;3.28;0.47;;;;;;;;;;5028064;28;20040;-68
2021/09/19 05:30:21;;;;;;;2.67;0.55;;;;;;;;;;5028320;28;20092;-68
2021/09/19 05:32:49;;;;;;;3.83;0.55;;;;;;;;;;5028364;28;20078;-68
2021/09/19 05:35:16;;;;;;;4.82;0.80;;;;;;;;;;5011597;28;20463;-67
2021/09/19 05:37:43;;;;;;;1.40;0.45;;;;;;;;;;5013808;28;20030;-68
2021/09/19 05:40:10;;;;;;;4.53;0.90;;;;;;;;;;5032805;28;20022;-68
2021/09/19 05:42:38;;;;;;;3.60;1.45;;;;;;;;;;5016672;28;20038;-69
2021/09/19 05:45:05;;;;;;;2.30;0.50;;;;;;;;;;5031630;28;20075;-69
2021/09/19 05:47:32;;;;;;;2.95;0.47;;;;;;;;;;5030922;28;20051;-68
2021/09/19 05:49:59;;;;;;;2.22;0.45;;;;;;;;;;5031619;28;20029;-68
2021/09/19 05:52:26;;;;;;;2.25;0.50;;;;;;;;;;5031988;28;20021;-68
2021/09/19 05:54:54;;;;;;;2.08;0.60;;;;;;;;;;5033242;28;20053;-69
2021/09/19 05:57:21;;;;;;;2.17;0.40;;;;;;;;;;5033187;28;20121;-68
2021/09/19 05:59:50;;;;;;;1.70;0.55;;;;;;;;;;5030816;28;20037;-68
2021/09/19 06:02:17;;;;;;;2.15;0.40;;;;;;;;;;5033122;28;20037;-66
2021/09/19 06:04:44;;;;;;;3.40;0.77;;;;;;;;;;5031854;28;20056;-67
2021/09/19 06:07:11;;;;;;;6.10;1.02;;;;;;;;;;5032454;28;20401;-68
2021/09/19 06:09:38;;;;;;;4.45;0.65;;;;;;;;;;5030141;28;20034;-68
2021/09/19 06:12:05;;;;;;;2.40;0.57;;;;;;;;;;5033467;28;20021;-69
2021/09/19 06:14:32;;;;;;;2.38;0.80;;;;;;;;;;5029127;28;20494;-68
2021/09/19 06:16:59;;;;;;;2.35;0.47;;;;;;;;;;5031945;28;20452;-68
2021/09/19 06:19:26;;;;;;;3.35;0.50;;;;;;;;;;5031710;28;20420;-68
2021/09/19 06:21:56;;;;;;;2.88;0.50;;;;;;;;;;5033164;28;20478;-68
2021/09/19 06:24:23;;;;;;;3.20;0.50;;;;;;;;;;5027280;28;20394;-68
2021/09/19 06:26:50;;;;;;;2.40;0.30;;;;;;;;;;5015091;28;20030;-67
2021/09/19 06:29:17;;;;;;;2.42;0.40;;;;;;;;;;5026594;28;20033;-67
2021/09/19 06:31:44;;;;;;;5.47;0.57;;;;;;;;;;5032660;28;20036;-68
2021/09/19 06:34:11;;;;;;;3.88;0.60;;;;;;;;;;5032280;28;20382;-68
2021/09/19 06:36:38;;;;;;;4.28;0.60;;;;;;;;;;5029844;28;20029;-68
2021/09/19 06:39:05;;;;;;;2.75;0.55;;;;;;;;;;5029823;28;20072;-68
2021/09/19 06:41:33;;;;;;;2.97;0.73;;;;;;;;;;5030493;28;20032;-68
2021/09/19 06:44:00;;;;;;;3.95;0.77;;;;;;;;;;5030998;28;20052;-68
2021/09/19 06:46:30;;;;;;;3.63;0.60;;;;;;;;;;5031815;28;20026;-68
2021/09/19 06:48:57;;;;;;;2.40;0.60;;;;;;;;;;5029236;28;20048;-68
2021/09/19 06:51:24;;;;;;;5.80;0.50;;;;;;;;;;5030996;28;20108;-68
2021/09/19 06:53:52;;;;;;;1.38;0.20;;;;;;;;;;5029047;28;20088;-68
2021/09/19 06:56:21;;;;;;;2.65;0.38;;;;;;;;;;5030149;28;20025;-68
2021/09/19 06:58:50;;;;;;;3.08;0.80;;;;;;;;;;5029339;28;20022;-68
2021/09/19 07:01:21;;;;;;;2.08;0.47;;;;;;;;;;5028884;28;20029;-68
2021/09/19 07:03:49;;;;;;;3.20;0.43;;;;;;;;;;5030052;28;20566;-68
2021/09/19 07:06:17;;;;;;;2.17;0.40;;;;;;;;;;5029916;28;21623;-68
2021/09/19 07:08:44;;;;;;;2.20;0.43;;;;;;;;;;5029094;28;20032;-68
2021/09/19 07:11:12;;;;;;;4.32;0.50;;;;;;;;;;5030965;28;20041;-68
2021/09/19 07:13:39;;;;;;;2.60;0.60;;;;;;;;;;5029156;28;20021;-67
2021/09/19 07:16:07;;;;;;;2.72;0.47;;;;;;;;;;5031408;28;20022;-68
2021/09/19 07:18:34;;;;;;;2.75;0.40;;;;;;;;;;5026499;28;20489;-67
2021/09/19 07:21:01;;;;;;;4.82;0.55;;;;;;;;;;5026934;28;20061;-70
2021/09/19 07:23:28;;;;;;;3.42;0.63;;;;;;;;;;5029030;28;20033;-71
2021/09/19 07:25:55;;;;;;;1.88;0.65;;;;;;;;;;5029885;28;20018;-70
2021/09/19 07:28:24;;;;;;;3.28;0.98;;;;;;;;;;5026627;28;20053;-70
2021/09/19 07:30:51;;;;;;;5.53;1.25;;;;;;;;;;5027402;28;20029;-70
2021/09/19 07:33:18;;;;;;;4.47;0.90;;;;;;;;;;5032861;28;20025;-69
2021/09/19 07:35:45;;;;;;;2.60;0.60;;;;;;;;;;5030452;28;20021;-70
2021/09/19 07:38:12;;;;;;;3.10;0.98;;;;;;;;;;5028298;28;20036;-69
2021/09/19 07:40:40;;;;;;;2.25;0.50;;;;;;;;;;5032411;28;20057;-70
2021/09/19 07:43:07;;;;;;;2.13;0.63;;;;;;;;;;5034845;28;20084;-70
2021/09/19 07:45:35;;;;;;;2.70;0.63;;;;;;;;;;5029482;28;20429;-70
2021/09/19 07:48:03;;;;;;;3.00;0.70;;;;;;;;;;5029393;28;20077;-71
2021/09/19 07:50:30;;;;;;;1.85;0.60;;;;;;;;;;5026826;28;20042;-70
2021/09/19 07:52:57;;;;;;;4.82;0.82;;;;;;;;;;5029004;28;20116;-70
2021/09/19 07:55:27;;;;;;;3.58;0.65;;;;;;;;;;5031373;28;20071;-68
2021/09/19 07:57:55;;;;;;;2.45;1.00;;;;;;;;;;5024841;28;20516;-69
2021/09/19 08:00:22;;;;;;;2.92;0.80;;;;;;;;;;5029642;28;20033;-69
2021/09/19 08:02:49;;;;;;;3.60;0.77;;;;;;;;;;5030110;28;20025;-70
2021/09/19 08:05:16;;;;;;;3.67;1.58;;;;;;;;;;5031413;28;20100;-70
2021/09/19 08:07:44;;;;;;;5.60;3.15;;;;;;;;;;5030569;28;20083;-69
2021/09/19 08:10:11;;;;;;;8.52;6.07;;;;;;;;;;5030052;28;20496;-70
2021/09/19 08:12:41;;;;;;;20.45;17.80;;;;;;;;;;5027374;28;20166;-70
2021/09/19 08:15:09;;;;;;;14.73;12.00;;;;;;;;;;5029117;28;20024;-69
2021/09/19 08:17:36;;;;;;;15.43;10.00;;;;;;;;;;5026517;28;20021;-69
2021/09/19 08:20:03;;;;;;;3.97;2.45;;;;;;;;;;5030320;28;20033;-70
2021/09/19 08:22:30;;;;;;;6.40;3.17;;;;;;;;;;5029191;28;20036;-70
2021/09/19 08:25:00;;;;;;;2.15;0.90;;;;;;;;;;5031094;28;20025;-69
2021/09/19 08:27:28;;;;;;;4.20;0.98;;;;;;;;;;5029970;28;20116;-69
2021/09/19 08:29:55;;;;;;;2.45;0.80;;;;;;;;;;5029758;28;20022;-69
2021/09/19 08:32:23;;;;;;;4.03;0.80;;;;;;;;;;5031642;28;20108;-70
2021/09/19 08:34:50;;;;;;;2.28;0.60;;;;;;;;;;5028177;28;20021;-70
2021/09/19 08:37:17;;;;;;;3.35;0.93;;;;;;;;;;5025919;28;20448;-70
2021/09/19 08:39:44;;;;;;;4.53;1.13;;;;;;;;;;5028010;28;20036;-69
2021/09/19 08:42:11;;;;;;;4.97;0.70;;;;;;;;;;5029911;28;20025;-69
2021/09/19 08:44:39;;;;;;;4.85;1.10;;;;;;;;;;5028549;28;20053;-70
2021/09/19 08:47:06;;;;;;;2.10;0.60;;;;;;;;;;5030785;28;20033;-70
2021/09/19 08:49:33;;;;;;;3.58;0.90;;;;;;;;;;5028120;28;20059;-71
2021/09/19 08:52:00;;;;;;;5.00;0.90;;;;;;;;;;5029757;28;20017;-71
2021/09/19 08:54:27;;;;;;;3.90;0.70;;;;;;;;;;5029431;28;20028;-71
2021/09/19 08:56:54;;;;;;;4.25;0.80;;;;;;;;;;5028793;28;20025;-70
2021/09/19 08:59:21;;;;;;;3.20;0.80;;;;;;;;;;5028176;28;20356;-71
2021/09/19 09:02:02;;;;;;;4.55;1.25;;;;;;;;;;5027783;28;20556;-71
2021/09/19 09:04:29;;;;;;;4.03;1.05;;;;;;;;;;5024130;28;20382;-70
2021/09/19 09:06:56;;;;;;;3.72;0.93;;;;;;;;;;5029532;28;20079;-70
2021/09/19 09:09:24;;;;;;;4.47;1.10;;;;;;;;;;5029479;28;20383;-69
2021/09/19 09:12:23;;;;;;;2.30;0.80;;;;;;;;;;5029887;28;20053;-69
2021/09/19 09:14:52;;;;;;;3.75;1.05;;;;;;;;;;4994331;28;20512;-68
2021/09/19 09:17:20;;;;;;;4.28;1.10;;;;;;;;;;5029800;28;20022;-69
2021/09/19 09:19:49;;;;;;;5.18;2.55;;;;;;;;;;5029524;28;20526;-69
2021/09/19 09:22:20;;;;;;;3.00;1.10;;;;;;;;;;5024604;28;20104;-69
2021/09/19 09:25:03;;;;;;;5.32;1.17;;;;;;;;;;5022528;28;20379;-70
2021/09/19 09:27:30;;;;;;;3.05;1.20;;;;;;;;;;5018498;28;20025;-69
2021/09/19 09:30:14;;;;;;;3.88;0.90;;;;;;;;;;5033078;28;20509;-69
2021/09/19 09:32:50;;;;;;;6.07;0.95;;;;;;;;;;5024080;28;20041;-69
2021/09/19 09:35:17;;;;;;;3.55;0.80;;;;;;;;;;5034639;28;20554;-69
2021/09/19 09:37:45;;;;;;;4.07;0.90;;;;;;;;;;5031775;28;20033;-69
2021/09/19 09:40:26;;;;;;;2.95;1.10;;;;;;;;;;5034466;28;20080;-70
2021/09/19 09:43:03;;;;;;;4.05;1.42;;;;;;;;;;5031506;28;20030;-68
2021/09/19 09:45:32;;;;;;;3.25;1.10;;;;;;;;;;5030626;28;20036;-69
2021/09/19 09:47:59;;;;;;;3.95;0.70;;;;;;;;;;5030598;28;20052;-68
2021/09/19 09:50:27;;;;;;;3.20;0.65;;;;;;;;;;5035251;28;20386;-69
2021/09/19 09:53:14;;;;;;;3.85;1.13;;;;;;;;;;5033693;28;20036;-69
2021/09/19 09:55:45;;;;;;;4.68;0.80;;;;;;;;;;5034773;28;20053;-69
2021/09/19 09:58:13;;;;;;;4.38;0.80;;;;;;;;;;5032091;28;20120;-69
2021/09/19 10:00:42;;;;;;;3.13;1.17;;;;;;;;;;5034895;28;20032;-67
2021/09/19 10:03:09;;;;;;;2.72;0.60;;;;;;;;;;5033290;28;20128;-68
2021/09/19 10:05:36;;;;;;;3.75;0.95;;;;;;;;;;5033329;28;20033;-68
2021/09/19 10:08:04;;;;;;;4.22;0.65;;;;;;;;;;5032248;28;20485;-69
2021/09/19 10:10:32;;;;;;;2.05;0.55;;;;;;;;;;5028437;28;20025;-70
2021/09/19 10:13:00;;;;;;;3.85;0.60;;;;;;;;;;5029908;28;20026;-69
2021/09/19 10:15:28;;;;;;;3.35;0.90;;;;;;;;;;5031785;28;20470;-69
2021/09/19 10:17:55;;;;;;;4.18;0.55;;;;;;;;;;5029851;28;20029;-69
2021/09/19 10:20:24;;;;;;;4.05;0.68;;;;;;;;;;5029595;28;20058;-69
2021/09/19 10:22:57;;;;;;;7.93;1.45;;;;;;;;;;5030349;28;20022;-68
2021/09/19 10:25:27;;;;;;;2.58;0.63;;;;;;;;;;5033379;28;20022;-69
2021/09/19 10:28:14;;;;;;;5.07;0.85;;;;;;;;;;5032138;28;20024;-69
2021/09/19 10:31:01;;;;;;;1.55;0.45;;;;;;;;;;5034350;28;20017;-69
2021/09/19 10:33:34;;;;;;;5.45;1.50;;;;;;;;;;5031482;28;20026;-69
2021/09/19 10:36:02;;;;;;;3.83;0.73;;;;;;;;;;5033130;28;20030;-69
2021/09/19 10:38:36;;;;;;;3.58;0.70;;;;;;;;;;5029713;28;20068;-69
2021/09/19 10:41:17;;;;;;;3.28;0.60;;;;;;;;;;5022201;28;20092;-69
2021/09/19 10:43:51;;;;;;;1.33;0.22;;;;;;;;;;5022922;28;20103;-69
2021/09/19 10:46:18;;;;;;;;;;;;;;;;;;5035130;28;20033;-69
2021/09/19 10:48:45;;;;;;;3.60;0.60;;;;;;;;;;5031092;28;19924;-69
2021/09/19 10:51:12;;;;;;;3.13;0.90;;;;;;;;;;5034374;28;20037;-68
2021/09/19 10:53:51;;;;;;;3.13;0.55;;;;;;;;;;5029439;28;20033;-69
2021/09/19 10:56:18;;;;;;;3.13;0.60;;;;;;;;;;5030372;28;20035;-69
2021/09/19 10:58:49;;;;;;;4.43;0.60;;;;;;;;;;5030667;28;20029;-69
2021/09/19 11:01:17;;;;;;;5.22;0.77;;;;;;;;;;5034171;28;20033;-69
2021/09/19 11:03:45;;;;;;;3.70;0.75;;;;;;;;;;5031824;28;20030;-70
2021/09/19 11:06:22;;;;;;;3.35;0.65;;;;;;;;;;5032171;28;20037;-69
2021/09/19 11:08:50;;;;;;;2.70;0.55;;;;;;;;;;5032379;28;20021;-68
2021/09/19 11:11:21;;;;;;;3.33;0.52;;;;;;;;;;5034161;28;20112;-69
2021/09/19 11:13:55;;;;;;;3.20;0.82;;;;;;;;;;5030162;28;20024;-69
2021/09/19 11:16:38;;;;;;;6.68;0.80;;;;;;;;;;5030287;28;20099;-69
2021/09/19 11:19:07;;;;;;;3.10;0.80;;;;;;;;;;5031783;28;20021;-69
2021/09/19 11:21:37;;;;;;;2.80;0.45;;;;;;;;;;5032910;28;20107;-69
2021/09/19 11:24:06;;;;;;;4.35;0.88;;;;;;;;;;5032006;28;20021;-68
2021/09/19 11:26:38;;;;;;;3.20;0.98;;;;;;;;;;5034046;28;20021;-68
2021/09/19 11:29:12;;;;;;;2.83;0.68;;;;;;;;;;5028117;28;20358;-68
2021/09/19 11:31:40;;;;;;;3.22;0.65;;;;;;;;;;5027809;28;20017;-65
2021/09/19 11:34:09;;;;;;;3.85;0.40;;;;;;;;;;5025886;28;20438;-68
2021/09/19 11:36:40;;;;;;;3.15;0.50;;;;;;;;;;5028650;28;20501;-68
2021/09/19 11:39:07;;;;;;;3.08;0.60;;;;;;;;;;5028765;28;20478;-69
2021/09/19 11:41:35;;;;;;;3.85;0.88;;;;;;;;;;5027926;28;20058;-69
2021/09/19 11:44:02;;;;;;;5.22;0.50;;;;;;;;;;5029998;28;20440;-69
2021/09/19 11:46:30;;;;;;;5.05;1.55;;;;;;;;;;5032321;28;20021;-69
2021/09/19 11:48:57;;;;;;;6.35;1.42;;;;;;;;;;5031272;28;20030;-69
2021/09/19 11:51:25;;;;;;;3.15;0.68;;;;;;;;;;5030648;28;20416;-69
2021/09/19 11:53:56;;;;;;;2.22;0.47;;;;;;;;;;5030436;28;20049;-69
2021/09/19 11:56:25;;;;;;;2.80;0.50;;;;;;;;;;5031374;28;20036;-68
2021/09/19 11:58:53;;;;;;;3.05;0.35;;;;;;;;;;5030296;28;20382;-68
2021/09/19 12:01:24;;;;;;;4.05;0.45;;;;;;;;;;5031295;28;20061;-69
2021/09/19 12:03:51;;;;;;;5.30;1.25;;;;;;;;;;5028040;28;20017;-69
2021/09/19 12:06:18;;;;;;;1.75;0.40;;;;;;;;;;5031213;28;20083;-69
2021/09/19 12:08:46;;;;;;;4.70;0.77;;;;;;;;;;5027648;28;20029;-68
2021/09/19 12:11:13;;;;;;;3.65;0.68;;;;;;;;;;5029414;28;20117;-69
2021/09/19 12:13:46;;;;;;;3.22;0.43;;;;;;;;;;5029783;28;20014;-69
2021/09/19 12:16:15;;;;;;;4.23;1.20;;;;;;;;;;5030767;28;20040;-68
2021/09/19 12:18:43;;;;;;;3.78;0.93;;;;;;;;;;5031094;28;20087;-69
2021/09/19 12:21:21;;;;;;;2.97;0.60;;;;;;;;;;5031161;28;20486;-69
2021/09/19 12:23:49;;;;;;;4.18;0.63;;;;;;;;;;5026396;28;20525;-69
2021/09/19 12:26:16;;;;;;;2.08;0.65;;;;;;;;;;5032191;28;20030;-69
2021/09/19 12:28:44;;;;;;;6.43;0.77;;;;;;;;;;5023042;28;20078;-69
2021/09/19 12:31:13;;;;;;;3.95;0.88;;;;;;;;;;5026961;28;20091;-69
2021/09/19 12:33:53;;;;;;;3.65;1.05;;;;;;;;;;5029878;28;20108;-69
2021/09/19 12:36:21;;;;;;;2.63;0.70;;;;;;;;;;5031136;28;20045;-70
2021/09/19 12:38:48;;;;;;;6.05;0.68;;;;;;;;;;5030512;28;20025;-68
2021/09/19 12:41:16;;;;;;;4.25;1.00;;;;;;;;;;5031484;28;20425;-68
2021/09/19 12:43:46;;;;;;;4.80;0.90;;;;;;;;;;5027556;28;20053;-68
2021/09/19 12:46:15;;;;;;;4.47;1.13;;;;;;;;;;5032136;28;20437;-69
2021/09/19 12:48:43;;;;;;;2.75;0.77;;;;;;;;;;5030043;28;20025;-68
2021/09/19 12:51:14;;;;;;;4.63;1.00;;;;;;;;;;5027656;28;20251;-70
2021/09/19 12:53:44;;;;;;;3.95;0.80;;;;;;;;;;5030211;28;20160;-68
2021/09/19 12:56:11;;;;;;;4.38;0.95;;;;;;;;;;5031687;28;20482;-69
2021/09/19 12:58:39;;;;;;;3.33;0.57;;;;;;;;;;5025966;28;20033;-69
2021/09/19 13:01:09;;;;;;;3.55;1.05;;;;;;;;;;5025821;28;20029;-69
2021/09/19 13:03:38;;;;;;;5.13;0.80;;;;;;;;;;5028588;28;20104;-69
2021/09/19 13:06:05;;;;;;;3.47;0.75;;;;;;;;;;5024449;28;20025;-69
2021/09/19 13:08:32;;;;;;;4.25;1.00;;;;;;;;;;5029807;28;20544;-69
2021/09/19 13:10:59;;;;;;;4.00;0.90;;;;;;;;;;5030355;28;20080;-69
2021/09/19 13:13:26;;;;;;;2.75;0.70;;;;;;;;;;5028964;28;20093;-69
2021/09/19 13:15:53;;;;;;;5.32;1.30;;;;;;;;;;5030650;28;20025;-69
2021/09/19 13:18:21;;;;;;;4.40;0.63;;;;;;;;;;5019426;28;20101;-69
2021/09/19 13:20:48;;;;;;;4.40;1.23;;;;;;;;;;5028322;28;20058;-69
2021/09/19 13:23:15;;;;;;;3.55;1.05;;;;;;;;;;5026580;28;20040;-69
2021/09/19 13:25:42;;;;;;;4.43;0.90;;;;;;;;;;5031181;28;20037;-69
2021/09/19 13:28:11;;;;;;;3.80;0.75;;;;;;;;;;5029982;28;20417;-69
2021/09/19 13:30:38;;;;;;;4.28;1.05;;;;;;;;;;5031102;28;20029;-69
2021/09/19 13:33:05;;;;;;;3.95;0.93;;;;;;;;;;5028613;28;20018;-69
2021/09/19 13:35:33;;;;;;;4.13;0.90;;;;;;;;;;5029643;28;20060;-69
2021/09/19 13:38:00;;;;;;;7.00;1.58;;;;;;;;;;5028962;28;20037;-69
2021/09/19 13:40:28;;;;;;;8.00;1.15;;;;;;;;;;5030883;28;20079;-69
2021/09/19 13:42:55;;;;;;;6.55;0.90;;;;;;;;;;5028470;28;20041;-69
2021/09/19 13:45:22;;;;;;;5.05;1.02;;;;;;;;;;5031242;28;20410;-69
2021/09/19 13:47:49;;;;;;;6.30;1.17;;;;;;;;;;5030208;28;20022;-69
2021/09/19 13:50:17;;;;;;;4.88;1.17;;;;;;;;;;5030410;28;20497;-69
2021/09/19 13:52:44;;;;;;;5.35;1.40;;;;;;;;;;5028895;28;20041;-69
2021/09/19 13:55:11;;;;;;;6.85;1.40;;;;;;;;;;5029548;28;20497;-69
2021/09/19 13:57:39;;;;;;;5.28;1.30;;;;;;;;;;5028592;28;20512;-69
2021/09/19 14:00:06;;;;;;;3.70;0.98;;;;;;;;;;5023333;28;20085;-69
2021/09/19 14:02:33;;;;;;;3.88;1.00;;;;;;;;;;5028376;28;20494;-69
2021/09/19 14:05:03;;;;;;;5.55;1.75;;;;;;;;;;5030382;28;20026;-69
2021/09/19 14:07:30;;;;;;;5.30;1.60;;;;;;;;;;5029742;28;20451;-69
2021/09/19 14:09:57;;;;;;;4.68;0.98;;;;;;;;;;5030007;28;20037;-69
2021/09/19 14:12:24;;;;;;;5.18;1.05;;;;;;;;;;5030685;28;20104;-69
2021/09/19 14:14:51;;;;;;;5.15;1.10;;;;;;;;;;5029608;28;20033;-69
2021/09/19 14:17:19;;;;;;;4.15;1.15;;;;;;;;;;5029008;28;20430;-69
2021/09/19 14:19:46;;;;;;;7.30;0.93;;;;;;;;;;5033641;28;20029;-69
2021/09/19 14:22:14;;;;;;;4.68;1.13;;;;;;;;;;5034917;28;20025;-69
2021/09/19 14:24:41;;;;;;;3.75;1.15;;;;;;;;;;5032384;28;20534;-69
2021/09/19 14:27:08;;;;;;;4.30;1.80;;;;;;;;;;5032292;28;20038;-69
2021/09/19 14:29:36;;;;;;;3.92;1.02;;;;;;;;;;5031070;28;20104;-69
2021/09/19 14:32:03;;;;;;;2.55;0.88;;;;;;;;;;5032764;28;20037;-69
2021/09/19 14:34:30;;;;;;;4.00;1.45;;;;;;;;;;5031495;28;20113;-69
2021/09/19 14:36:57;;;;;;;4.40;0.82;;;;;;;;;;5032478;28;20490;-69
2021/09/19 14:39:25;;;;;;;2.92;0.95;;;;;;;;;;5015929;28;20041;-69
2021/09/19 14:41:53;;;;;;;5.40;1.08;;;;;;;;;;5033363;28;20026;-69
2021/09/19 14:44:20;;;;;;;5.10;0.98;;;;;;;;;;5032221;28;20430;-69
2021/09/19 14:46:47;;;;;;;4.93;1.02;;;;;;;;;;5033693;28;20529;-69
2021/09/19 14:49:15;;;;;;;3.50;0.77;;;;;;;;;;5031414;28;20041;-69